sensor_id;sensor_type;location;lat;lon;timestamp;temperature;humidity
20985;DHT22;10651;47.552;7.606;2024-02-21T07:04:26;6.00;99.90
20985;DHT22;10651;47.552;7.606;2024-02-21T07:06:52;5.90;99.90
20985;DHT22;10651;47.552;7.606;2024-02-21T07:09:18;5.90;99.90
20985;DHT22;10651;47.552;7.606;2024-02-21T07:11:44;5.90;99.90
20985;DHT22;10651;47.552;7.606;2024-02-21T07:14:10;5.90;99.90
20985;DHT22;10651;47.552;7.606;2024-02-21T07:16:35;6.00;99.90
20985;DHT22;10651;47.552;7.606;2024-02-21T07:19:02;6.00;99.90
20985;DHT22;10651;47.552;7.606;2024-02-21T07:21:28;6.00;99.90
20985;DHT22;10651;47.552;7.606;2024-02-21T07:23:53;6.00;99.90
20985;DHT22;10651;47.552;7.606;2024-02-21T07:26:19;6.00;99.90
20985;DHT22;10651;47.552;7.606;2024-02-21T07:28:45;6.00;99.90
20985;DHT22;10651;47.552;7.606;2024-02-21T07:31:11;6.10;99.90
20985;DHT22;10651;47.552;7.606;2024-02-21T07:33:37;6.10;99.90
20985;DHT22;10651;47.552;7.606;2024-02-21T07:36:10;6.10;99.90
20985;DHT22;10651;47.552;7.606;2024-02-21T07:38:36;6.10;99.90
20985;DHT22;10651;47.552;7.606;2024-02-21T07:41:02;6.20;99.90
20985;DHT22;10651;47.552;7.606;2024-02-21T07:43:29;6.20;99.90
20985;DHT22;10651;47.552;7.606;2024-02-21T07:45:55;6.30;99.90
20985;DHT22;10651;47.552;7.606;2024-02-21T07:48:21;6.40;99.90
20985;DHT22;10651;47.552;7.606;2024-02-21T07:50:52;6.50;99.90
20985;DHT22;10651;47.552;7.606;2024-02-21T07:53:17;6.50;99.90
20985;DHT22;10651;47.552;7.606;2024-02-21T07:55:43;6.60;99.90
20985;DHT22;10651;47.552;7.606;2024-02-21T07:58:09;6.70;99.90
20985;DHT22;10651;47.552;7.606;2024-02-21T08:00:34;6.70;99.90
20985;DHT22;10651;47.552;7.606;2024-02-21T08:03:00;6.80;99.90
20985;DHT22;10651;47.552;7.606;2024-02-21T08:05:26;6.90;99.90
20985;DHT22;10651;47.552;7.606;2024-02-21T08:07:51;7.00;99.90
20985;DHT22;10651;47.552;7.606;2024-02-21T08:10:17;7.00;99.90
20985;DHT22;10651;47.552;7.606;2024-02-21T08:12:43;7.00;99.90
20985;DHT22;10651;47.552;7.606;2024-02-21T08:15:09;7.00;99.90
20985;DHT22;10651;47.552;7.606;2024-02-21T08:17:36;7.10;99.90
20985;DHT22;10651;47.552;7.606;2024-02-21T08:20:03;7.20;99.90
20985;DHT22;10651;47.552;7.606;2024-02-21T08:22:30;7.40;99.90
20985;DHT22;10651;47.552;7.606;2024-02-21T08:24:55;7.40;99.90
20985;DHT22;10651;47.552;7.606;2024-02-21T08:27:21;7.60;99.90
20985;DHT22;10651;47.552;7.606;2024-02-21T08:29:47;7.70;99.90
20985;DHT22;10651;47.552;7.606;2024-02-21T08:32:13;7.90;99.90
20985;DHT22;10651;47.552;7.606;2024-02-21T08:34:38;8.20;99.90
20985;DHT22;10651;47.552;7.606;2024-02-21T08:37:04;8.20;99.90
20985;DHT22;10651;47.552;7.606;2024-02-21T08:39:30;8.30;99.90
20985;DHT22;10651;47.552;7.606;2024-02-21T08:41:56;8.50;99.90
20985;DHT22;10651;47.552;7.606;2024-02-21T08:44:27;8.70;99.90
20985;DHT22;10651;47.552;7.606;2024-02-21T08:46:53;8.50;99.90
20985;DHT22;10651;47.552;7.606;2024-02-21T08:49:19;8.60;99.90
20985;DHT22;10651;47.552;7.606;2024-02-21T08:51:44;8.60;99.90
20985;DHT22;10651;47.552;7.606;2024-02-21T08:54:12;8.80;99.90
20985;DHT22;10651;47.552;7.606;2024-02-21T08:56:37;9.00;99.90
20985;DHT22;10651;47.552;7.606;2024-02-21T08:59:03;9.00;99.90
20985;DHT22;10651;47.552;7.606;2024-02-21T09:01:29;9.00;99.90
20985;DHT22;10651;47.552;7.606;2024-02-21T09:03:55;9.00;99.90
20985;DHT22;10651;47.552;7.606;2024-02-21T09:06:22;9.10;99.90
20985;DHT22;10651;47.552;7.606;2024-02-21T09:08:48;9.10;99.90
20985;DHT22;10651;47.552;7.606;2024-02-21T09:11:14;9.20;99.90
20985;DHT22;10651;47.552;7.606;2024-02-21T09:13:40;9.20;99.90
20985;DHT22;10651;47.552;7.606;2024-02-21T09:16:11;9.20;99.90
20985;DHT22;10651;47.552;7.606;2024-02-21T09:18:37;9.10;99.90
20985;DHT22;10651;47.552;7.606;2024-02-21T09:21:03;9.10;99.90
20985;DHT22;10651;47.552;7.606;2024-02-21T09:23:29;9.30;99.90
20985;DHT22;10651;47.552;7.606;2024-02-21T09:25:56;9.40;99.90
20985;DHT22;10651;47.552;7.606;2024-02-21T09:28:22;9.40;99.90
20985;DHT22;10651;47.552;7.606;2024-02-21T09:30:48;9.50;99.90
20985;DHT22;10651;47.552;7.606;2024-02-21T09:33:14;9.60;99.90
20985;DHT22;10651;47.552;7.606;2024-02-21T09:35:40;9.80;99.90
20985;DHT22;10651;47.552;7.606;2024-02-21T09:38:05;9.90;99.90
20985;DHT22;10651;47.552;7.606;2024-02-21T09:40:31;10.10;99.90
20985;DHT22;10651;47.552;7.606;2024-02-21T09:43:03;10.30;99.90
20985;DHT22;10651;47.552;7.606;2024-02-21T09:45:35;10.30;99.90
20985;DHT22;10651;47.552;7.606;2024-02-21T09:51:01;10.50;99.90
20985;DHT22;10651;47.552;7.606;2024-02-21T09:53:27;10.50;99.90
20985;DHT22;10651;47.552;7.606;2024-02-21T09:55:54;10.60;99.90
20985;DHT22;10651;47.552;7.606;2024-02-21T09:58:21;10.90;99.90
20985;DHT22;10651;47.552;7.606;2024-02-21T10:00:47;11.50;99.90
20985;DHT22;10651;47.552;7.606;2024-02-21T10:03:12;11.90;99.90
20985;DHT22;10651;47.552;7.606;2024-02-21T10:05:39;12.20;99.90
20985;DHT22;10651;47.552;7.606;2024-02-21T10:08:05;12.50;99.90
20985;DHT22;10651;47.552;7.606;2024-02-21T10:10:44;13.10;99.90
20985;DHT22;10651;47.552;7.606;2024-02-21T10:13:10;14.30;99.90
20985;DHT22;10651;47.552;7.606;2024-02-21T10:15:37;14.50;99.90
20985;DHT22;10651;47.552;7.606;2024-02-21T10:18:03;14.50;99.90
20985;DHT22;10651;47.552;7.606;2024-02-21T10:20:29;14.60;99.90
20985;DHT22;10651;47.552;7.606;2024-02-21T10:23:05;15.20;99.90
20985;DHT22;10651;47.552;7.606;2024-02-21T10:25:36;16.30;99.90
20985;DHT22;10651;47.552;7.606;2024-02-21T10:28:12;16.00;99.90
20985;DHT22;10651;47.552;7.606;2024-02-21T10:30:38;15.70;99.90
20985;DHT22;10651;47.552;7.606;2024-02-21T10:33:05;15.50;99.90
20985;DHT22;10651;47.552;7.606;2024-02-21T10:35:32;15.90;99.90
20985;DHT22;10651;47.552;7.606;2024-02-21T10:37:59;16.20;99.90
20985;DHT22;10651;47.552;7.606;2024-02-21T10:40:26;16.20;99.90
20985;DHT22;10651;47.552;7.606;2024-02-21T10:43:02;16.40;99.90
20985;DHT22;10651;47.552;7.606;2024-02-21T10:45:35;17.10;99.90
20985;DHT22;10651;47.552;7.606;2024-02-21T10:48:12;17.10;99.90
20985;DHT22;10651;47.552;7.606;2024-02-21T10:51:05;17.30;99.90
20985;DHT22;10651;47.552;7.606;2024-02-21T10:56:32;17.70;99.90
20985;DHT22;10651;47.552;7.606;2024-02-21T10:59:02;17.30;99.90
20985;DHT22;10651;47.552;7.606;2024-02-21T11:01:29;16.90;99.90
20985;DHT22;10651;47.552;7.606;2024-02-21T11:03:59;17.10;99.90
20985;DHT22;10651;47.552;7.606;2024-02-21T11:06:27;17.80;99.90
20985;DHT22;10651;47.552;7.606;2024-02-21T11:09:08;17.30;99.90
20985;DHT22;10651;47.552;7.606;2024-02-21T11:11:42;17.10;99.90
20985;DHT22;10651;47.552;7.606;2024-02-21T11:16:44;17.20;99.90
20985;DHT22;10651;47.552;7.606;2024-02-21T11:19:23;17.40;99.90
20985;DHT22;10651;47.552;7.606;2024-02-21T11:21:49;17.50;99.90
20985;DHT22;10651;47.552;7.606;2024-02-21T11:24:30;17.80;99.90
20985;DHT22;10651;47.552;7.606;2024-02-21T11:27:33;18.20;99.90
20985;DHT22;10651;47.552;7.606;2024-02-21T11:29:59;18.10;99.90
20985;DHT22;10651;47.552;7.606;2024-02-21T11:32:25;18.60;99.90
20985;DHT22;10651;47.552;7.606;2024-02-21T11:34:59;18.30;99.90
20985;DHT22;10651;47.552;7.606;2024-02-21T11:37:31;17.70;99.90
20985;DHT22;10651;47.552;7.606;2024-02-21T11:40:03;17.40;99.90
20985;DHT22;10651;47.552;7.606;2024-02-21T11:42:29;17.80;99.90
20985;DHT22;10651;47.552;7.606;2024-02-21T11:45:25;18.30;99.90
20985;DHT22;10651;47.552;7.606;2024-02-21T11:48:11;17.90;99.90
20985;DHT22;10651;47.552;7.606;2024-02-21T11:51:03;18.00;99.90
20985;DHT22;10651;47.552;7.606;2024-02-21T11:53:53;18.00;99.90
20985;DHT22;10651;47.552;7.606;2024-02-21T12:00:22;18.10;99.90
20985;DHT22;10651;47.552;7.606;2024-02-21T12:02:58;17.60;99.90
20985;DHT22;10651;47.552;7.606;2024-02-21T12:08:57;17.50;99.90
20985;DHT22;10651;47.552;7.606;2024-02-21T12:12:06;18.30;99.90
20985;DHT22;10651;47.552;7.606;2024-02-21T12:14:33;19.20;99.90
20985;DHT22;10651;47.552;7.606;2024-02-21T12:17:05;20.00;99.90
20985;DHT22;10651;47.552;7.606;2024-02-21T12:19:32;20.70;99.90
20985;DHT22;10651;47.552;7.606;2024-02-21T12:22:02;21.20;99.90
20985;DHT22;10651;47.552;7.606;2024-02-21T12:24:34;21.40;98.70
20985;DHT22;10651;47.552;7.606;2024-02-21T12:27:14;20.70;97.40
20985;DHT22;10651;47.552;7.606;2024-02-21T12:29:48;20.20;96.90
20985;DHT22;10651;47.552;7.606;2024-02-21T12:32:16;19.90;96.80
20985;DHT22;10651;47.552;7.606;2024-02-21T12:34:44;20.40;97.10
20985;DHT22;10651;47.552;7.606;2024-02-21T12:37:23;20.90;97.60
20985;DHT22;10651;47.552;7.606;2024-02-21T12:39:49;20.50;95.90
20985;DHT22;10651;47.552;7.606;2024-02-21T12:42:18;20.00;99.60
20985;DHT22;10651;47.552;7.606;2024-02-21T12:44:44;19.30;99.60
20985;DHT22;10651;47.552;7.606;2024-02-21T12:47:26;19.10;99.00
20985;DHT22;10651;47.552;7.606;2024-02-21T12:49:53;18.70;99.90
20985;DHT22;10651;47.552;7.606;2024-02-21T12:52:23;18.60;99.90
20985;DHT22;10651;47.552;7.606;2024-02-21T12:54:52;18.40;99.90
20985;DHT22;10651;47.552;7.606;2024-02-21T12:57:39;17.70;99.90
20985;DHT22;10651;47.552;7.606;2024-02-21T13:00:14;17.80;99.90
20985;DHT22;10651;47.552;7.606;2024-02-21T13:03:00;18.40;99.90
20985;DHT22;10651;47.552;7.606;2024-02-21T13:05:28;18.60;99.90
20985;DHT22;10651;47.552;7.606;2024-02-21T13:07:54;19.10;99.90
20985;DHT22;10651;47.552;7.606;2024-02-21T13:10:27;19.70;99.90
20985;DHT22;10651;47.552;7.606;2024-02-21T13:12:56;19.70;99.90
20985;DHT22;10651;47.552;7.606;2024-02-21T13:15:22;19.80;99.90
20985;DHT22;10651;47.552;7.606;2024-02-21T13:17:48;19.40;99.90
20985;DHT22;10651;47.552;7.606;2024-02-21T13:20:13;18.60;99.90
20985;DHT22;10651;47.552;7.606;2024-02-21T13:22:39;18.30;99.90
20985;DHT22;10651;47.552;7.606;2024-02-21T13:25:05;18.20;99.90
20985;DHT22;10651;47.552;7.606;2024-02-21T13:27:33;18.00;99.90
20985;DHT22;10651;47.552;7.606;2024-02-21T13:29:59;18.10;99.90
20985;DHT22;10651;47.552;7.606;2024-02-21T13:32:27;18.00;99.90
20985;DHT22;10651;47.552;7.606;2024-02-21T13:34:55;18.20;99.90
20985;DHT22;10651;47.552;7.606;2024-02-21T13:37:21;18.40;99.90
20985;DHT22;10651;47.552;7.606;2024-02-21T13:39:47;18.30;99.90
20985;DHT22;10651;47.552;7.606;2024-02-21T13:42:15;18.20;99.90
20985;DHT22;10651;47.552;7.606;2024-02-21T13:44:48;18.20;99.90
20985;DHT22;10651;47.552;7.606;2024-02-21T13:47:40;18.10;99.90
20985;DHT22;10651;47.552;7.606;2024-02-21T13:51:03;17.70;99.90
20985;DHT22;10651;47.552;7.606;2024-02-21T13:53:33;17.50;99.90
20985;DHT22;10651;47.552;7.606;2024-02-21T13:56:02;17.00;99.90
20985;DHT22;10651;47.552;7.606;2024-02-21T13:58:41;16.70;99.90
20985;DHT22;10651;47.552;7.606;2024-02-21T14:01:20;16.80;99.90
20985;DHT22;10651;47.552;7.606;2024-02-21T14:03:49;16.80;99.90
20985;DHT22;10651;47.552;7.606;2024-02-21T14:06:23;16.90;99.90
20985;DHT22;10651;47.552;7.606;2024-02-21T14:08:51;17.30;99.90
20985;DHT22;10651;47.552;7.606;2024-02-21T14:11:17;17.30;99.90
20985;DHT22;10651;47.552;7.606;2024-02-21T14:14:13;17.50;99.90
20985;DHT22;10651;47.552;7.606;2024-02-21T14:16:48;17.10;99.90
20985;DHT22;10651;47.552;7.606;2024-02-21T14:20:07;17.00;99.90
20985;DHT22;10651;47.552;7.606;2024-02-21T14:23:32;16.80;99.90
20985;DHT22;10651;47.552;7.606;2024-02-21T14:29:01;16.40;99.90
20985;DHT22;10651;47.552;7.606;2024-02-21T14:35:16;16.10;99.90
20985;DHT22;10651;47.552;7.606;2024-02-21T14:38:10;15.80;99.90
20985;DHT22;10651;47.552;7.606;2024-02-21T14:40:36;15.60;99.90
20985;DHT22;10651;47.552;7.606;2024-02-21T14:43:05;15.30;99.90
20985;DHT22;10651;47.552;7.606;2024-02-21T14:45:30;15.10;99.90
20985;DHT22;10651;47.552;7.606;2024-02-21T14:47:58;15.00;99.90
20985;DHT22;10651;47.552;7.606;2024-02-21T14:50:30;14.90;99.90
20985;DHT22;10651;47.552;7.606;2024-02-21T14:52:56;14.90;99.90
20985;DHT22;10651;47.552;7.606;2024-02-21T14:55:22;14.60;99.90
20985;DHT22;10651;47.552;7.606;2024-02-21T14:57:54;14.50;99.90
20985;DHT22;10651;47.552;7.606;2024-02-21T15:00:23;14.40;99.90
20985;DHT22;10651;47.552;7.606;2024-02-21T15:02:56;14.30;99.90
20985;DHT22;10651;47.552;7.606;2024-02-21T15:05:22;14.30;99.90
20985;DHT22;10651;47.552;7.606;2024-02-21T15:07:52;14.30;99.90
20985;DHT22;10651;47.552;7.606;2024-02-21T15:10:23;14.10;99.90
20985;DHT22;10651;47.552;7.606;2024-02-21T15:12:52;14.10;99.90
20985;DHT22;10651;47.552;7.606;2024-02-21T15:15:22;14.10;99.90
20985;DHT22;10651;47.552;7.606;2024-02-21T15:17:50;14.10;99.90
20985;DHT22;10651;47.552;7.606;2024-02-21T15:20:20;14.00;99.90
20985;DHT22;10651;47.552;7.606;2024-02-21T15:26:30;13.90;99.90
20985;DHT22;10651;47.552;7.606;2024-02-21T15:29:48;13.80;99.90
20985;DHT22;10651;47.552;7.606;2024-02-21T15:43:32;13.60;99.90
20985;DHT22;10651;47.552;7.606;2024-02-21T15:49:46;13.50;99.90
20985;DHT22;10651;47.552;7.606;2024-02-21T15:56:20;13.30;99.90
20985;DHT22;10651;47.552;7.606;2024-02-21T16:05:56;13.30;99.90
20985;DHT22;10651;47.552;7.606;2024-02-21T16:08:54;13.20;99.90
20985;DHT22;10651;47.552;7.606;2024-02-21T16:11:49;13.20;99.90
20985;DHT22;10651;47.552;7.606;2024-02-21T16:17:50;13.10;99.90
20985;DHT22;10651;47.552;7.606;2024-02-21T16:28:06;13.00;99.90
20985;DHT22;10651;47.552;7.606;2024-02-21T16:34:16;12.90;99.90
20985;DHT22;10651;47.552;7.606;2024-02-21T16:37:08;12.90;99.90
20985;DHT22;10651;47.552;7.606;2024-02-21T16:40:24;12.90;99.90
20985;DHT22;10651;47.552;7.606;2024-02-21T16:43:50;13.00;99.90
20985;DHT22;10651;47.552;7.606;2024-02-21T16:50:00;12.90;99.90
20985;DHT22;10651;47.552;7.606;2024-02-21T16:53:00;12.90;99.90
20985;DHT22;10651;47.552;7.606;2024-02-21T16:58:22;12.90;99.90
20985;DHT22;10651;47.552;7.606;2024-02-21T17:00:48;12.80;99.90
20985;DHT22;10651;47.552;7.606;2024-02-21T17:03:17;12.80;99.90
20985;DHT22;10651;47.552;7.606;2024-02-21T17:05:57;12.70;99.90
20985;DHT22;10651;47.552;7.606;2024-02-21T17:08:26;12.80;99.90
20985;DHT22;10651;47.552;7.606;2024-02-21T17:10:55;12.80;99.90
20985;DHT22;10651;47.552;7.606;2024-02-21T17:13:26;12.70;99.90
20985;DHT22;10651;47.552;7.606;2024-02-21T17:15:52;12.70;99.90
20985;DHT22;10651;47.552;7.606;2024-02-21T17:18:27;12.60;99.90
20985;DHT22;10651;47.552;7.606;2024-02-21T17:20:53;12.60;99.90
20985;DHT22;10651;47.552;7.606;2024-02-21T17:23:19;12.60;99.90
20985;DHT22;10651;47.552;7.606;2024-02-21T17:25:45;12.60;99.90
20985;DHT22;10651;47.552;7.606;2024-02-21T17:28:14;12.60;99.90
20985;DHT22;10651;47.552;7.606;2024-02-21T17:30:39;12.60;99.90
20985;DHT22;10651;47.552;7.606;2024-02-21T17:33:08;12.50;99.90
20985;DHT22;10651;47.552;7.606;2024-02-21T17:35:37;12.50;99.90
20985;DHT22;10651;47.552;7.606;2024-02-21T17:38:09;12.40;99.90
20985;DHT22;10651;47.552;7.606;2024-02-21T17:40:40;12.40;99.90
20985;DHT22;10651;47.552;7.606;2024-02-21T17:43:09;12.40;99.90
20985;DHT22;10651;47.552;7.606;2024-02-21T17:45:36;12.40;99.90
20985;DHT22;10651;47.552;7.606;2024-02-21T17:48:15;12.40;99.90
20985;DHT22;10651;47.552;7.606;2024-02-21T17:50:40;12.40;99.90
20985;DHT22;10651;47.552;7.606;2024-02-21T17:53:09;12.30;99.90
20985;DHT22;10651;47.552;7.606;2024-02-21T17:55:35;12.30;99.90
20985;DHT22;10651;47.552;7.606;2024-02-21T17:58:10;12.30;99.90
20985;DHT22;10651;47.552;7.606;2024-02-21T18:00:36;12.30;99.90
20985;DHT22;10651;47.552;7.606;2024-02-21T18:03:10;12.30;99.90
20985;DHT22;10651;47.552;7.606;2024-02-21T18:08:52;12.20;99.90
20985;DHT22;10651;47.552;7.606;2024-02-21T18:11:23;12.20;99.90
20985;DHT22;10651;47.552;7.606;2024-02-21T18:13:54;12.20;99.90
20985;DHT22;10651;47.552;7.606;2024-02-21T18:16:30;12.20;99.90
20985;DHT22;10651;47.552;7.606;2024-02-21T18:18:59;12.20;99.90
20985;DHT22;10651;47.552;7.606;2024-02-21T18:31:23;12.30;99.90
20985;DHT22;10651;47.552;7.606;2024-02-21T18:35:02;12.30;99.90
20985;DHT22;10651;47.552;7.606;2024-02-21T18:41:33;12.20;99.90
20985;DHT22;10651;47.552;7.606;2024-02-21T18:48:18;12.20;99.90
20985;DHT22;10651;47.552;7.606;2024-02-21T18:51:23;12.20;99.90
20985;DHT22;10651;47.552;7.606;2024-02-21T18:53:59;12.20;99.90
20985;DHT22;10651;47.552;7.606;2024-02-21T19:00:09;12.20;99.90
20985;DHT22;10651;47.552;7.606;2024-02-21T19:02:57;12.20;99.90
20985;DHT22;10651;47.552;7.606;2024-02-21T19:05:56;12.20;99.90
20985;DHT22;10651;47.552;7.606;2024-02-21T19:08:55;12.20;99.90
20985;DHT22;10651;47.552;7.606;2024-02-21T19:14:52;12.10;99.90
20985;DHT22;10651;47.552;7.606;2024-02-21T19:24:34;12.00;99.90
20985;DHT22;10651;47.552;7.606;2024-02-21T19:34:11;12.00;99.90
20985;DHT22;10651;47.552;7.606;2024-02-21T19:37:34;11.90;99.90
20985;DHT22;10651;47.552;7.606;2024-02-21T19:43:48;11.90;99.90
20985;DHT22;10651;47.552;7.606;2024-02-21T19:46:16;11.90;99.90
20985;DHT22;10651;47.552;7.606;2024-02-21T19:48:42;11.80;99.90
20985;DHT22;10651;47.552;7.606;2024-02-21T19:51:08;11.70;99.90
20985;DHT22;10651;47.552;7.606;2024-02-21T19:53:34;11.70;99.90
20985;DHT22;10651;47.552;7.606;2024-02-21T19:56:00;11.70;99.90
20985;DHT22;10651;47.552;7.606;2024-02-21T19:58:26;11.70;99.90
20985;DHT22;10651;47.552;7.606;2024-02-21T20:00:54;11.70;99.90
20985;DHT22;10651;47.552;7.606;2024-02-21T20:03:20;11.70;99.90
20985;DHT22;10651;47.552;7.606;2024-02-21T20:05:46;11.60;99.90
20985;DHT22;10651;47.552;7.606;2024-02-21T20:08:12;11.60;99.90
20985;DHT22;10651;47.552;7.606;2024-02-21T20:10:38;11.70;99.90
20985;DHT22;10651;47.552;7.606;2024-02-21T20:13:06;11.70;99.90
20985;DHT22;10651;47.552;7.606;2024-02-21T20:15:32;11.60;99.90
20985;DHT22;10651;47.552;7.606;2024-02-21T20:17:58;11.60;99.90
20985;DHT22;10651;47.552;7.606;2024-02-21T20:20:24;11.50;99.90
20985;DHT22;10651;47.552;7.606;2024-02-21T20:22:52;11.60;99.90
20985;DHT22;10651;47.552;7.606;2024-02-21T20:25:18;11.50;99.90
20985;DHT22;10651;47.552;7.606;2024-02-21T20:27:45;11.50;99.90
20985;DHT22;10651;47.552;7.606;2024-02-21T20:30:12;11.50;99.90
20985;DHT22;10651;47.552;7.606;2024-02-21T20:32:41;11.50;99.90
20985;DHT22;10651;47.552;7.606;2024-02-21T20:35:07;11.50;99.90
20985;DHT22;10651;47.552;7.606;2024-02-21T20:37:33;11.50;99.90
20985;DHT22;10651;47.552;7.606;2024-02-21T20:39:59;11.60;99.90
20985;DHT22;10651;47.552;7.606;2024-02-21T20:42:25;11.50;99.90
20985;DHT22;10651;47.552;7.606;2024-02-21T20:44:51;11.50;99.90
20985;DHT22;10651;47.552;7.606;2024-02-21T20:47:17;11.50;99.90
20985;DHT22;10651;47.552;7.606;2024-02-21T20:49:43;11.40;99.90
20985;DHT22;10651;47.552;7.606;2024-02-21T20:52:09;11.50;99.90
20985;DHT22;10651;47.552;7.606;2024-02-21T20:54:35;11.50;99.90
20985;DHT22;10651;47.552;7.606;2024-02-21T20:57:00;11.60;99.90
20985;DHT22;10651;47.552;7.606;2024-02-21T20:59:26;11.60;99.90
20985;DHT22;10651;47.552;7.606;2024-02-21T21:01:52;11.60;99.90
20985;DHT22;10651;47.552;7.606;2024-02-21T21:04:18;11.50;99.90
20985;DHT22;10651;47.552;7.606;2024-02-21T21:06:44;11.50;99.90
20985;DHT22;10651;47.552;7.606;2024-02-21T21:09:10;11.50;99.90
20985;DHT22;10651;47.552;7.606;2024-02-21T21:11:36;11.50;99.90
20985;DHT22;10651;47.552;7.606;2024-02-21T21:14:03;11.50;99.90
20985;DHT22;10651;47.552;7.606;2024-02-21T21:16:29;11.50;99.90
20985;DHT22;10651;47.552;7.606;2024-02-21T21:21:25;11.50;99.90
20985;DHT22;10651;47.552;7.606;2024-02-21T21:23:51;11.40;99.90
20985;DHT22;10651;47.552;7.606;2024-02-21T21:26:16;11.40;99.90
20985;DHT22;10651;47.552;7.606;2024-02-21T21:28:42;11.40;99.90
20985;DHT22;10651;47.552;7.606;2024-02-21T21:31:08;11.50;99.90
20985;DHT22;10651;47.552;7.606;2024-02-21T21:33:33;11.40;99.90
20985;DHT22;10651;47.552;7.606;2024-02-21T21:35:59;11.50;99.90
20985;DHT22;10651;47.552;7.606;2024-02-21T21:38:26;11.50;99.90
20985;DHT22;10651;47.552;7.606;2024-02-21T21:40:52;11.50;99.90
20985;DHT22;10651;47.552;7.606;2024-02-21T21:43:18;11.50;99.90
20985;DHT22;10651;47.552;7.606;2024-02-21T21:45:44;11.50;99.90
20985;DHT22;10651;47.552;7.606;2024-02-21T21:48:10;11.50;99.90
20985;DHT22;10651;47.552;7.606;2024-02-21T21:50:35;11.50;99.90
20985;DHT22;10651;47.552;7.606;2024-02-21T21:53:04;11.50;99.90
20985;DHT22;10651;47.552;7.606;2024-02-21T21:55:31;11.50;99.90
20985;DHT22;10651;47.552;7.606;2024-02-21T21:57:57;11.40;99.90
20985;DHT22;10651;47.552;7.606;2024-02-21T22:00:23;11.40;99.90
20985;DHT22;10651;47.552;7.606;2024-02-21T22:02:50;11.40;99.90
20985;DHT22;10651;47.552;7.606;2024-02-21T22:05:15;11.40;99.90
20985;DHT22;10651;47.552;7.606;2024-02-21T22:07:45;11.30;99.90
20985;DHT22;10651;47.552;7.606;2024-02-21T22:10:12;11.40;99.90
20985;DHT22;10651;47.552;7.606;2024-02-21T22:12:37;11.40;99.90
20985;DHT22;10651;47.552;7.606;2024-02-21T22:15:03;11.30;99.90
20985;DHT22;10651;47.552;7.606;2024-02-21T22:17:34;11.30;99.90
20985;DHT22;10651;47.552;7.606;2024-02-21T22:20:00;11.30;99.90
20985;DHT22;10651;47.552;7.606;2024-02-21T22:22:26;11.30;99.90
20985;DHT22;10651;47.552;7.606;2024-02-21T22:24:51;11.30;99.90
20985;DHT22;10651;47.552;7.606;2024-02-21T22:27:18;11.30;99.90
20985;DHT22;10651;47.552;7.606;2024-02-21T22:29:44;11.30;99.90
20985;DHT22;10651;47.552;7.606;2024-02-21T22:32:10;11.30;99.90
20985;DHT22;10651;47.552;7.606;2024-02-21T22:34:38;11.30;99.90
20985;DHT22;10651;47.552;7.606;2024-02-21T22:37:04;11.30;99.90
20985;DHT22;10651;47.552;7.606;2024-02-21T22:39:30;11.30;99.90
20985;DHT22;10651;47.552;7.606;2024-02-21T22:41:59;11.30;99.90
20985;DHT22;10651;47.552;7.606;2024-02-21T22:44:25;11.30;99.90
20985;DHT22;10651;47.552;7.606;2024-02-21T22:46:51;11.30;99.90
20985;DHT22;10651;47.552;7.606;2024-02-21T22:49:17;11.30;99.90
20985;DHT22;10651;47.552;7.606;2024-02-21T22:51:45;11.30;99.90
20985;DHT22;10651;47.552;7.606;2024-02-21T22:54:11;11.30;99.90
20985;DHT22;10651;47.552;7.606;2024-02-21T22:56:41;11.20;99.90
20985;DHT22;10651;47.552;7.606;2024-02-21T22:59:07;11.20;99.90
20985;DHT22;10651;47.552;7.606;2024-02-21T23:01:38;11.20;99.90
20985;DHT22;10651;47.552;7.606;2024-02-21T23:04:17;11.20;99.90
20985;DHT22;10651;47.552;7.606;2024-02-21T23:06:43;11.20;99.90
20985;DHT22;10651;47.552;7.606;2024-02-21T23:09:09;11.30;99.90
20985;DHT22;10651;47.552;7.606;2024-02-21T23:11:35;11.30;99.90
20985;DHT22;10651;47.552;7.606;2024-02-21T23:14:01;11.20;99.90
20985;DHT22;10651;47.552;7.606;2024-02-21T23:16:27;11.30;99.90
20985;DHT22;10651;47.552;7.606;2024-02-21T23:18:53;11.30;99.90
